Time;durP1;ratioP1;P1;durP2;ratioP2;P2;SDS_P1;SDS_P2;PMS_P1;PMS_P2;Temp;Humidity;BMP_temperature;BMP_pressure;BME280_temperature;BME280_humidity;BME280_pressure;Samples;Min_cycle;Max_cycle;Signal;HPM_P1;HPM_P2
2023/06/05 00:00:14;;;;;;;3.58;1.67;;;;;;;12.62;57.25;100425.72;10376342;28;20337;-70
2023/06/05 00:05:18;;;;;;;3.10;1.60;;;;;;;12.43;58.48;100426.38;10375883;28;20108;-70
2023/06/05 00:10:20;;;;;;;2.33;1.60;;;;;;;12.16;59.51;100421.09;10376166;28;20041;-70
2023/06/05 00:15:21;;;;;;;2.40;1.60;;;;;;;12.26;58.92;100422.53;10376552;28;20050;-70
2023/06/05 00:20:23;;;;;;;2.35;1.48;;;;;;;12.20;58.79;100425.34;10375604;28;20120;-70
2023/06/05 00:25:25;;;;;;;2.90;1.38;;;;;;;11.88;60.15;100415.84;10374394;28;20137;-70
2023/06/05 00:30:27;;;;;;;1.92;1.27;;;;;;;11.67;61.53;100414.69;10375367;28;20427;-70
2023/06/05 00:35:28;;;;;;;3.00;1.55;;;;;;;11.60;61.71;100414.00;10376039;28;20424;-71
2023/06/05 00:40:30;;;;;;;1.50;1.20;;;;;;;11.83;61.55;100415.13;10374985;28;20050;-69
2023/06/05 00:45:32;;;;;;;2.05;1.60;;;;;;;11.86;61.18;100418.53;10373870;28;20049;-69
2023/06/05 00:50:34;;;;;;;1.88;1.60;;;;;;;11.60;62.54;100419.28;10375035;28;20480;-70
2023/06/05 00:55:38;;;;;;;2.10;1.35;;;;;;;11.58;62.98;100412.31;10357781;28;20061;-69
2023/06/05 01:00:39;;;;;;;2.05;1.80;;;;;;;11.36;63.55;100418.22;10374702;28;20447;-69
2023/06/05 01:05:43;;;;;;;2.90;1.48;;;;;;;11.55;63.25;100412.41;10373106;28;20096;-70
2023/06/05 01:10:45;;;;;;;2.53;1.85;;;;;;;11.46;63.41;100408.28;10373149;28;20074;-71
2023/06/05 01:15:48;;;;;;;2.08;1.55;;;;;;;11.29;62.94;100415.81;10372974;28;20074;-70
2023/06/05 01:20:50;;;;;;;2.45;1.80;;;;;;;11.10;63.52;100410.19;10374761;28;20042;-70
2023/06/05 01:25:53;;;;;;;2.78;1.30;;;;;;;10.91;64.86;100401.97;10373262;28;20144;-70
2023/06/05 01:31:03;;;;;;;5.70;1.50;;;;;;;10.98;64.99;100408.78;10374978;28;20042;-70
2023/06/05 01:36:06;;;;;;;2.88;1.58;;;;;;;10.94;65.13;100404.50;10374325;28;20589;-70
2023/06/05 01:41:12;;;;;;;2.38;1.30;;;;;;;11.02;65.23;100399.03;10375428;28;20065;-70
2023/06/05 01:46:16;;;;;;;2.15;1.55;;;;;;;11.04;65.12;100399.84;10378131;28;20070;-70
2023/06/05 01:51:18;;;;;;;2.95;1.70;;;;;;;11.00;65.24;100400.84;10381757;28;20139;-70
2023/06/05 01:56:23;;;;;;;2.05;1.42;;;;;;;10.93;65.77;100402.75;10382950;28;20038;-70
2023/06/05 02:01:28;;;;;;;3.05;1.60;;;;;;;10.68;66.89;100399.94;10380327;28;20096;-70
2023/06/05 02:06:52;;;;;;;2.65;1.80;;;;;;;10.81;66.61;100397.84;10380134;28;20104;-70
2023/06/05 02:11:54;;;;;;;3.53;1.80;;;;;;;10.77;66.58;100394.44;10379814;28;20046;-70
2023/06/05 02:16:56;;;;;;;2.13;1.50;;;;;;;10.66;67.54;100395.63;10363126;28;20621;-70
2023/06/05 02:21:58;;;;;;;3.35;1.50;;;;;;;10.36;69.32;100382.38;10379495;28;20070;-70
2023/06/05 02:26:59;;;;;;;4.43;1.70;;;;;;;10.49;68.71;100383.81;10381059;28;20053;-70
2023/06/05 02:32:03;;;;;;;4.53;1.75;;;;;;;10.82;67.91;100384.66;10381216;28;20042;-70
2023/06/05 02:37:05;;;;;;;7.82;1.75;;;;;;;10.43;69.37;100381.31;10380803;28;20053;-69
2023/06/05 02:42:08;;;;;;;3.30;1.60;;;;;;;10.37;69.84;100381.47;10381023;28;20042;-70
2023/06/05 02:47:10;;;;;;;2.97;1.65;;;;;;;10.56;68.53;100387.13;10364689;28;20066;-69
2023/06/05 02:52:12;;;;;;;3.33;2.00;;;;;;;10.57;68.37;100383.56;10382483;28;20045;-71
2023/06/05 02:57:15;;;;;;;2.55;1.70;;;;;;;10.63;67.86;100386.06;10378072;28;20056;-70
2023/06/05 03:02:18;;;;;;;2.60;1.50;;;;;;;10.41;69.13;100391.00;10378643;28;20052;-69
2023/06/05 03:07:22;;;;;;;6.03;1.77;;;;;;;10.38;69.60;100387.59;10378356;28;20112;-69
2023/06/05 03:12:25;;;;;;;3.25;1.85;;;;;;;10.20;71.45;100386.25;10377460;28;20050;-69
2023/06/05 03:17:28;;;;;;;2.83;2.05;;;;;;;10.14;71.65;100379.41;10377690;28;20099;-69
2023/06/05 03:22:31;;;;;;;4.20;2.00;;;;;;;10.08;70.98;100390.91;10378331;28;20141;-70
2023/06/05 03:27:33;;;;;;;3.13;2.20;;;;;;;10.11;70.20;100382.94;10379029;28;20060;-70
2023/06/05 03:32:36;;;;;;;3.58;1.80;;;;;;;10.27;69.42;100386.09;10376618;28;20049;-70
2023/06/05 03:37:41;;;;;;;3.80;2.35;;;;;;;10.41;69.06;100385.75;10377790;28;20084;-70
2023/06/05 03:42:42;;;;;;;2.70;1.80;;;;;;;10.46;69.23;100383.88;10378143;28;20518;-70
2023/06/05 03:47:48;;;;;;;3.47;1.83;;;;;;;10.49;68.03;100386.44;10378757;28;20045;-70
2023/06/05 03:52:52;;;;;;;3.28;2.13;;;;;;;10.82;67.12;100386.44;10378345;28;20038;-70
2023/06/05 03:57:56;;;;;;;5.15;1.83;;;;;;;11.13;66.42;100394.34;10377638;28;20424;-70
2023/06/05 04:02:59;;;;;;;3.25;2.00;;;;;;;11.30;65.62;100389.44;10376451;28;20050;-70
2023/06/05 04:08:03;;;;;;;10.07;1.63;;;;;;;10.97;63.02;100391.25;10375380;28;20048;-70
2023/06/05 04:13:05;;;;;;;3.70;1.80;;;;;;;10.97;65.00;100393.03;10375106;28;20410;-71
2023/06/05 04:18:09;;;;;;;3.22;2.47;;;;;;;10.99;63.55;100399.97;10375633;28;20065;-70
2023/06/05 04:23:11;;;;;;;3.08;2.10;;;;;;;11.09;63.51;100395.31;10376289;28;20407;-70
2023/06/05 04:28:17;;;;;;;3.22;1.83;;;;;;;11.59;61.51;100390.34;10374994;28;20058;-70
2023/06/05 04:33:19;;;;;;;2.95;2.58;;;;;;;11.49;61.35;100396.81;10374725;28;20049;-70
2023/06/05 04:38:22;;;;;;;3.33;1.92;;;;;;;11.60;62.06;100389.47;10375584;28;20100;-70
2023/06/05 04:43:25;;;;;;;3.22;2.03;;;;;;;11.68;61.23;100395.31;10375022;28;20128;-70
2023/06/05 04:48:27;;;;;;;4.60;2.20;;;;;;;12.20;59.79;100396.34;10373505;28;20060;-71
2023/06/05 04:53:31;;;;;;;4.32;2.03;;;;;;;12.46;60.62;100395.50;10373714;28;20133;-70
2023/06/05 04:58:34;;;;;;;4.05;1.83;;;;;;;12.30;59.23;100394.28;10373546;28;20140;-71
2023/06/05 05:03:36;;;;;;;2.33;1.92;;;;;;;12.47;58.87;100391.09;10374929;28;20407;-70
2023/06/05 05:08:39;;;;;;;3.40;1.90;;;;;;;12.84;58.07;100399.47;10373172;28;20157;-71
2023/06/05 05:13:42;;;;;;;4.20;1.90;;;;;;;12.74;57.89;100397.19;10373411;28;20129;-70
2023/06/05 05:18:44;;;;;;;2.50;1.88;;;;;;;13.16;55.09;100396.59;10374929;28;20089;-70
2023/06/05 05:23:46;;;;;;;2.55;1.80;;;;;;;13.29;56.31;100404.03;10380978;28;20042;-70
2023/06/05 05:28:48;;;;;;;4.05;1.80;;;;;;;13.27;55.34;100410.25;10382334;28;20104;-70
2023/06/05 05:33:50;;;;;;;4.72;1.70;;;;;;;14.02;53.26;100402.94;10381322;28;20053;-70
2023/06/05 05:38:53;;;;;;;4.60;1.83;;;;;;;15.09;51.05;100409.03;10383207;28;20042;-71
2023/06/05 05:43:55;;;;;;;5.57;1.85;;;;;;;15.63;49.05;100404.81;10381873;28;20073;-70
2023/06/05 05:48:57;;;;;;;2.10;1.88;;;;;;;16.00;47.79;100411.06;10380583;28;20054;-70
2023/06/05 05:53:58;;;;;;;3.28;2.10;;;;;;;15.76;48.66;100407.78;10382723;28;20077;-72
2023/06/05 05:59:00;;;;;;;5.22;1.83;;;;;;;15.63;48.75;100407.47;10382849;28;20100;-70
2023/06/05 06:04:03;;;;;;;4.78;2.42;;;;;;;15.75;48.71;100407.84;10383556;28;20061;-71
2023/06/05 06:09:08;;;;;;;2.78;2.00;;;;;;;16.20;47.45;100409.22;10382273;28;20050;-70
2023/06/05 06:14:10;;;;;;;4.28;1.90;;;;;;;16.60;46.87;100410.72;10365482;28;20049;-71
2023/06/05 06:19:14;;;;;;;4.18;1.90;;;;;;;16.93;45.75;100396.72;10381469;28;20048;-70
2023/06/05 06:24:16;;;;;;;4.57;1.73;;;;;;;17.11;46.18;100401.91;10380545;28;20088;-70
2023/06/05 06:29:19;;;;;;;4.18;2.03;;;;;;;17.43;44.65;100406.44;10380595;28;20442;-71
2023/06/05 06:34:21;;;;;;;3.70;1.70;;;;;;;17.74;43.92;100405.66;10378680;28;20501;-70
2023/06/05 06:39:25;;;;;;;3.45;1.58;;;;;;;18.59;41.09;100414.06;10380342;28;20042;-70
2023/06/05 06:44:28;;;;;;;3.00;1.88;;;;;;;18.50;42.64;100408.38;10378866;28;20455;-70
2023/06/05 06:49:30;;;;;;;3.15;2.13;;;;;;;18.27;41.84;100412.41;10379801;28;20084;-70
2023/06/05 06:54:32;;;;;;;2.30;1.60;;;;;;;18.11;43.57;100407.97;10377320;28;20048;-70
2023/06/05 06:59:33;;;;;;;4.90;1.98;;;;;;;18.50;42.82;100411.06;10378765;28;20411;-71
2023/06/05 07:04:38;;;;;;;4.50;1.77;;;;;;;18.18;42.87;100405.81;10379728;28;20447;-69
2023/06/05 07:09:42;;;;;;;8.52;2.78;;;;;;;18.39;42.73;100415.22;10377679;28;20145;-71
2023/06/05 07:14:43;;;;;;;3.22;1.63;;;;;;;18.94;41.98;100408.44;10376882;28;20034;-71
2023/06/05 07:19:45;;;;;;;3.17;1.88;;;;;;;19.26;40.79;100406.50;10377610;28;20049;-70
2023/06/05 07:24:48;;;;;;;3.33;1.73;;;;;;;19.99;39.21;100409.00;10377627;28;20132;-70
2023/06/05 07:29:53;;;;;;;4.25;1.58;;;;;;;20.15;39.31;100407.03;10377895;28;20045;-72
2023/06/05 07:34:54;;;;;;;6.43;1.92;;;;;;;20.48;39.56;100404.94;10377394;28;20042;-71
2023/06/05 07:39:56;;;;;;;2.88;1.80;;;;;;;21.14;38.76;100403.94;10377320;28;20050;-71
2023/06/05 07:44:58;;;;;;;3.28;1.38;;;;;;;21.63;37.91;100397.81;10376670;28;20104;-71
2023/06/05 07:50:03;;;;;;;7.72;1.70;;;;;;;22.01;37.58;100399.53;10376866;28;20117;-70
2023/06/05 07:55:06;;;;;;;4.70;1.42;;;;;;;22.82;35.44;100402.34;10377343;28;20060;-71
2023/06/05 08:00:09;;;;;;;3.63;1.40;;;;;;;22.84;35.03;100391.47;10376508;28;20050;-71
2023/06/05 08:05:14;;;;;;;5.53;1.83;;;;;;;22.46;36.91;100386.41;10375822;28;20070;-71
2023/06/05 08:10:16;;;;;;;3.25;1.75;;;;;;;22.90;35.67;100391.91;10375692;28;20038;-71
2023/06/05 08:15:18;;;;;;;2.05;1.20;;;;;;;23.12;35.40;100387.56;10375621;28;20042;-70
2023/06/05 08:20:20;;;;;;;4.60;1.40;;;;;;;23.33;34.81;100382.31;10376171;28;20052;-70
2023/06/05 08:25:21;;;;;;;5.53;1.45;;;;;;;23.24;36.99;100381.22;10373887;28;20069;-70
2023/06/05 08:30:23;;;;;;;2.40;1.40;;;;;;;23.58;35.84;100381.22;10375194;28;20074;-70
2023/06/05 08:35:25;;;;;;;2.28;1.13;;;;;;;23.82;34.30;100368.53;10375431;28;20492;-70
2023/06/05 08:40:28;;;;;;;2.80;1.35;;;;;;;24.00;35.14;100368.00;10374970;28;20045;-71
2023/06/05 08:45:31;;;;;;;10.73;1.67;;;;;;;24.02;35.13;100369.56;10373998;28;20077;-70
2023/06/05 08:50:37;;;;;;;1.70;1.20;;;;;;;24.70;33.55;100367.44;10376491;28;20046;-71
2023/06/05 08:55:39;;;;;;;3.03;1.60;;;;;;;25.08;33.09;100364.16;10379754;28;20559;-70
2023/06/05 09:00:41;;;;;;;3.42;1.40;;;;;;;25.32;32.52;100369.25;10384368;28;20088;-70
2023/06/05 09:05:43;;;;;;;4.43;1.23;;;;;;;25.79;31.79;100358.78;10384430;28;20022;-71
2023/06/05 09:10:45;;;;;;;3.03;1.30;;;;;;;25.87;31.24;100358.09;10364999;28;20092;-71
2023/06/05 09:15:50;;;;;;;2.58;1.20;;;;;;;26.31;31.76;100345.94;10381107;28;20046;-71
2023/06/05 09:20:52;;;;;;;2.72;1.45;;;;;;;26.54;32.75;100349.22;10382525;28;20052;-70
2023/06/05 09:25:59;;;;;;;3.63;1.92;;;;;;;26.08;32.31;100345.38;10382534;28;20463;-71
2023/06/05 09:31:03;;;;;;;9.52;1.60;;;;;;;26.30;33.41;100341.56;10383046;28;20053;-70
2023/06/05 09:36:06;;;;;;;2.75;1.83;;;;;;;26.23;33.04;100335.00;10381962;28;20038;-70
2023/06/05 09:41:10;;;;;;;2.60;1.77;;;;;;;25.92;34.45;100337.00;10382403;28;20056;-70
2023/06/05 09:46:14;;;;;;;7.68;2.10;;;;;;;26.33;33.40;100329.63;10381171;28;20500;-70
2023/06/05 09:51:17;;;;;;;2.25;1.48;;;;;;;27.18;33.38;100320.66;10381015;28;20113;-70
2023/06/05 09:56:22;;;;;;;2.33;1.65;;;;;;;27.37;31.25;100317.88;10379333;28;20519;-70
2023/06/05 10:01:24;;;;;;;2.28;1.85;;;;;;;26.65;33.41;100318.53;10379966;28;20092;-70
2023/06/05 10:06:28;;;;;;;3.03;2.00;;;;;;;26.25;33.08;100314.16;10363820;28;20049;-71
2023/06/05 10:11:30;;;;;;;2.45;1.70;;;;;;;26.03;34.76;100309.06;10380671;28;20133;-70
2023/06/05 10:16:33;;;;;;;1.88;1.70;;;;;;;25.49;33.88;100316.59;10379710;28;20113;-70
2023/06/05 10:21:36;;;;;;;1.95;1.75;;;;;;;25.16;35.42;100305.19;10378694;28;20053;-70
2023/06/05 10:27:12;;;;;;;2.88;2.03;;;;;;;26.01;34.97;100303.81;10401678;23;20061;-70
2023/06/05 10:32:28;;;;;;;4.85;2.10;;;;;;;26.30;33.52;100286.81;10420973;28;20041;-70
2023/06/05 10:37:54;;;;;;;2.60;1.60;;;;;;;25.53;32.65;100284.88;10434643;28;20140;-71
2023/06/05 10:43:28;;;;;;;4.28;1.88;;;;;;;24.99;33.42;100286.09;10420222;28;20080;-71
2023/06/05 10:49:12;;;;;;;3.28;1.88;;;;;;;25.08;32.85;100278.09;10419890;28;20457;-72
2023/06/05 10:54:16;;;;;;;2.67;1.75;;;;;;;25.36;33.31;100286.41;10419596;28;20084;-71
2023/06/05 10:59:22;;;;;;;3.47;1.20;;;;;;;26.16;32.15;100279.97;10420200;28;20045;-72
2023/06/05 11:04:24;;;;;;;1.65;1.40;;;;;;;26.79;32.07;100280.34;10434637;28;20053;-72
2023/06/05 11:09:29;;;;;;;1.73;1.40;;;;;;;27.20;30.28;100274.66;10417652;28;20049;-71
2023/06/05 11:14:49;;;;;;;2.37;1.50;;;;;;;27.16;30.01;100285.75;10416491;28;20042;-71
2023/06/05 11:19:51;;;;;;;3.65;1.40;;;;;;;27.17;31.50;100268.53;10417603;28;20051;-71
2023/06/05 11:25:15;;;;;;;2.83;1.40;;;;;;;27.33;29.49;100264.34;10417687;28;20061;-70
2023/06/05 11:30:28;;;;;;;2.07;1.43;;;;;;;27.67;28.67;100260.00;10416585;28;20041;-70
2023/06/05 11:35:48;;;;;;;3.08;1.40;;;;;;;27.00;29.59;100263.91;10416863;28;20048;-70
2023/06/05 11:40:50;;;;;;;2.20;1.55;;;;;;;26.57;29.21;100257.28;10416975;28;20045;-70
2023/06/05 11:45:57;;;;;;;2.05;1.33;;;;;;;27.11;29.48;100262.91;10416800;28;20088;-70
2023/06/05 11:51:05;;;;;;;3.38;1.50;;;;;;;27.46;28.66;100250.50;10430333;28;20052;-70
2023/06/05 11:56:17;;;;;;;2.10;1.60;;;;;;;27.92;30.20;100241.34;10447535;28;20124;-70
2023/06/05 12:01:25;;;;;;;3.85;1.80;;;;;;;28.42;27.78;100246.16;10415519;28;20041;-70
2023/06/05 12:06:28;;;;;;;1.35;1.00;;;;;;;28.68;27.38;100229.91;10416162;28;20042;-70
2023/06/05 12:11:30;;;;;;;2.90;1.63;;;;;;;27.75;28.52;100234.09;10398380;28;20438;-70
2023/06/05 12:16:37;;;;;;;1.75;1.50;;;;;;;26.66;27.89;100233.97;10415763;28;20045;-70
2023/06/05 12:21:39;;;;;;;1.77;1.42;;;;;;;27.22;28.92;100224.06;10416394;28;20045;-70
2023/06/05 12:26:54;;;;;;;3.50;1.30;;;;;;;27.17;28.75;100222.66;10414062;28;20037;-70
2023/06/05 12:31:57;;;;;;;4.15;1.58;;;;;;;26.94;27.27;100221.34;10415671;28;20120;-70
2023/06/05 12:36:59;;;;;;;2.20;1.20;;;;;;;27.96;26.85;100225.69;10415224;28;20570;-70
2023/06/05 12:42:02;;;;;;;2.17;1.35;;;;;;;28.01;28.53;100210.69;10414937;28;20072;-70
2023/06/05 12:47:03;;;;;;;2.88;1.40;;;;;;;28.09;26.81;100205.34;10414902;28;20037;-70
2023/06/05 12:52:09;;;;;;;3.13;1.50;;;;;;;27.68;26.33;100209.53;10414840;28;20088;-70
2023/06/05 12:57:10;;;;;;;2.20;1.27;;;;;;;28.47;25.35;100195.19;10414833;28;20049;-70
2023/06/05 13:02:14;;;;;;;2.25;1.52;;;;;;;28.51;25.29;100191.16;10414620;28;20552;-70
2023/06/05 13:07:21;;;;;;;2.20;1.60;;;;;;;27.84;25.64;100181.84;10416065;28;20065;-71
2023/06/05 13:12:23;;;;;;;4.30;1.80;;;;;;;27.15;27.25;100169.88;10415729;28;20125;-71
2023/06/05 13:17:25;;;;;;;2.90;1.70;;;;;;;26.59;26.87;100165.44;10415356;28;20112;-70
2023/06/05 13:22:27;;;;;;;4.32;1.70;;;;;;;26.45;27.61;100166.78;10415419;28;20065;-71
2023/06/05 13:27:28;;;;;;;3.30;1.60;;;;;;;26.13;27.75;100165.28;10415505;28;20041;-71
2023/06/05 13:32:31;;;;;;;2.22;1.80;;;;;;;25.86;29.68;100160.66;10415201;28;20076;-70
2023/06/05 13:37:33;;;;;;;3.17;2.00;;;;;;;25.78;28.42;100165.06;10415833;28;20045;-70
2023/06/05 13:42:35;;;;;;;2.92;1.75;;;;;;;26.04;28.65;100160.78;10420072;28;20038;-71
2023/06/05 13:47:37;;;;;;;3.03;1.77;;;;;;;25.58;28.60;100161.50;10422693;28;20045;-71
2023/06/05 13:52:39;;;;;;;2.88;1.77;;;;;;;25.64;29.73;100150.19;10423192;28;20125;-71
2023/06/05 13:57:40;;;;;;;2.20;2.00;;;;;;;25.73;28.38;100161.94;10422115;28;20056;-70
2023/06/05 14:02:42;;;;;;;5.00;1.85;;;;;;;26.16;28.61;100147.97;10420587;28;20229;-71
2023/06/05 14:07:44;;;;;;;2.25;1.65;;;;;;;26.20;28.50;100152.06;10421322;28;20045;-71
2023/06/05 14:12:51;;;;;;;3.47;1.67;;;;;;;26.17;28.23;100152.38;10429473;28;20479;-71
2023/06/05 14:17:53;;;;;;;1.70;1.60;;;;;;;26.21;27.88;100152.91;10444504;28;20044;-71
2023/06/05 14:22:59;;;;;;;2.40;2.00;;;;;;;26.11;29.65;100150.25;10461721;28;20041;-71
2023/06/05 14:28:00;;;;;;;;;;;;;;;25.74;28.23;100151.00;10460784;28;20044;-70
2023/06/05 14:33:02;;;;;;;2.30;1.67;;;;;;;25.48;28.54;100141.81;10460474;28;20100;-70
2023/06/05 14:38:04;;;;;;;3.45;1.60;;;;;;;25.52;28.31;100140.53;10461029;28;20106;-71
2023/06/05 14:43:06;;;;;;;3.38;1.55;;;;;;;25.40;28.73;100135.28;10459837;28;20072;-70
2023/06/05 14:48:10;;;;;;;4.05;1.70;;;;;;;25.48;28.48;100142.66;10444189;28;20125;-71
2023/06/05 14:53:12;;;;;;;3.65;1.95;;;;;;;25.15;29.30;100136.72;10452676;28;20048;-70
2023/06/05 14:58:15;;;;;;;2.15;1.52;;;;;;;25.10;29.36;100141.66;10420878;28;20045;-70
2023/06/05 15:03:17;;;;;;;2.58;1.88;;;;;;;25.06;30.34;100139.34;10430018;28;20037;-70
2023/06/05 15:08:21;;;;;;;3.58;1.45;;;;;;;25.00;30.85;100138.03;10459788;28;20056;-71
2023/06/05 15:13:24;;;;;;;4.55;1.83;;;;;;;24.81;30.74;100135.31;10458577;28;20055;-72
2023/06/05 15:18:26;;;;;;;2.10;1.50;;;;;;;24.77;31.02;100148.19;10459630;28;20044;-72
2023/06/05 15:23:28;;;;;;;3.97;1.70;;;;;;;24.67;31.18;100136.56;10422768;28;20519;-72
2023/06/05 15:28:29;;;;;;;5.72;1.85;;;;;;;24.57;30.89;100135.66;10417488;28;20050;-72
2023/06/05 15:33:31;;;;;;;4.40;1.75;;;;;;;24.40;31.24;100134.47;10416382;28;20112;-72
2023/06/05 15:38:33;;;;;;;3.05;1.70;;;;;;;24.27;31.30;100137.34;10416500;28;20053;-72
2023/06/05 15:43:35;;;;;;;2.03;1.60;;;;;;;24.04;31.65;100134.00;10417145;28;20507;-72
2023/06/05 15:48:38;;;;;;;1.92;1.60;;;;;;;23.97;31.34;100116.69;10416837;28;20439;-72
2023/06/05 15:53:40;;;;;;;2.78;1.50;;;;;;;23.98;31.75;100123.75;10421563;28;20102;-72
2023/06/05 15:59:01;;;;;;;3.13;1.65;;;;;;;24.00;31.55;100129.88;10457976;28;20056;-72
2023/06/05 16:04:02;;;;;;;3.65;1.58;;;;;;;23.95;32.47;100128.53;10456354;28;20136;-72
2023/06/05 16:09:04;;;;;;;1.75;1.55;;;;;;;23.91;32.14;100120.78;10458106;28;20075;-72
2023/06/05 16:14:07;;;;;;;3.40;1.75;;;;;;;23.85;32.20;100126.66;10457108;28;20533;-72
2023/06/05 16:19:09;;;;;;;2.95;1.73;;;;;;;23.67;33.27;100122.84;10458096;28;20477;-72
2023/06/05 16:24:11;;;;;;;3.58;1.60;;;;;;;23.79;32.84;100126.34;10456823;28;20053;-72
2023/06/05 16:29:13;;;;;;;3.28;1.80;;;;;;;23.56;33.29;100129.13;10457163;28;20045;-73
2023/06/05 16:34:15;;;;;;;3.15;2.17;;;;;;;23.64;32.85;100120.38;10457250;28;20136;-72
2023/06/05 16:39:17;;;;;;;2.78;1.80;;;;;;;23.57;33.33;100124.59;10455427;28;20517;-73
2023/06/05 16:44:19;;;;;;;3.97;2.40;;;;;;;23.28;35.80;100135.06;10471910;28;20061;-73
2023/06/05 16:49:21;;;;;;;2.97;2.00;;;;;;;23.06;36.40;100131.47;10457044;28;20080;-73
2023/06/05 16:54:23;;;;;;;2.88;2.00;;;;;;;22.92;36.79;100137.13;10456745;28;20107;-73
2023/06/05 16:59:25;;;;;;;3.17;2.10;;;;;;;22.83;37.87;100135.16;10454948;28;20045;-74
2023/06/05 17:04:26;;;;;;;3.63;1.85;;;;;;;22.62;38.38;100132.38;10456617;28;20116;-74
2023/06/05 17:09:30;;;;;;;3.42;2.85;;;;;;;22.56;39.36;100133.72;10457451;28;20380;-74
2023/06/05 17:14:32;;;;;;;8.80;3.08;;;;;;;22.56;39.69;100133.72;10456031;28;20436;-73
2023/06/05 17:19:34;;;;;;;4.70;2.10;;;;;;;22.59;40.31;100135.34;10452067;28;20502;-74
2023/06/05 17:24:35;;;;;;;3.58;2.47;;;;;;;22.40;41.01;100134.13;10428597;28;20564;-73
2023/06/05 17:29:37;;;;;;;3.28;2.95;;;;;;;22.41;41.75;100140.31;10400188;28;20103;-72
2023/06/05 17:34:39;;;;;;;4.03;2.60;;;;;;;22.33;42.11;100134.72;10434359;28;20454;-73
2023/06/05 17:39:41;;;;;;;2.75;2.20;;;;;;;22.16;42.31;100130.69;10430847;28;20041;-73
2023/06/05 17:44:43;;;;;;;3.38;2.28;;;;;;;22.07;43.45;100124.19;10420287;28;20111;-73
2023/06/05 17:49:44;;;;;;;3.08;2.78;;;;;;;21.92;44.29;100120.06;10419915;28;20049;-73
2023/06/05 17:54:46;;;;;;;3.85;2.60;;;;;;;22.08;43.29;100128.56;10459121;28;20536;-73
2023/06/05 17:59:48;;;;;;;4.32;2.50;;;;;;;22.01;43.86;100129.19;10463106;28;20049;-73
2023/06/05 18:04:50;;;;;;;5.32;2.42;;;;;;;21.64;45.71;100140.88;10432404;28;20037;-73
2023/06/05 18:09:52;;;;;;;5.85;3.05;;;;;;;21.46;45.91;100141.44;10421047;28;20069;-74
2023/06/05 18:14:54;;;;;;;4.07;2.65;;;;;;;21.37;46.60;100145.66;10420362;28;20088;-73
2023/06/05 18:19:56;;;;;;;3.00;2.70;;;;;;;21.23;47.85;100151.16;10421272;28;20041;-73
2023/06/05 18:24:58;;;;;;;6.05;2.50;;;;;;;20.90;49.25;100161.53;10420440;28;20034;-73
2023/06/05 18:30:00;;;;;;;3.58;3.28;;;;;;;20.85;49.61;100157.47;10418006;28;20045;-73
2023/06/05 18:35:04;;;;;;;3.92;2.63;;;;;;;20.63;50.15;100164.38;10420003;28;20037;-73
2023/06/05 18:40:07;;;;;;;4.28;2.78;;;;;;;20.51;50.45;100167.06;10418753;28;20050;-73
2023/06/05 18:45:10;;;;;;;6.22;2.72;;;;;;;20.33;51.09;100169.19;10418233;28;20041;-73
2023/06/05 18:50:11;;;;;;;3.08;2.80;;;;;;;20.32;51.34;100170.13;10419776;28;20045;-73
2023/06/05 18:55:13;;;;;;;3.53;2.92;;;;;;;20.17;52.01;100180.06;10420584;28;20125;-73
2023/06/05 19:00:15;;;;;;;3.58;2.85;;;;;;;20.16;52.21;100183.69;10419055;28;20414;-73
2023/06/05 19:05:17;;;;;;;2.67;2.22;;;;;;;20.06;52.29;100190.66;10418914;28;20072;-73
2023/06/05 19:10:19;;;;;;;3.80;2.90;;;;;;;19.91;52.43;100189.84;10419188;28;20049;-73
2023/06/05 19:15:21;;;;;;;2.83;2.50;;;;;;;19.84;53.17;100200.09;10418185;28;20193;-74
2023/06/05 19:20:23;;;;;;;2.53;2.33;;;;;;;19.71;53.68;100203.72;10419040;28;20111;-73
2023/06/05 19:25:25;;;;;;;4.25;2.85;;;;;;;19.66;53.40;100204.00;10418356;28;20049;-73
2023/06/05 19:30:27;;;;;;;5.93;2.75;;;;;;;19.53;54.10;100203.94;10416860;28;20034;-73
2023/06/05 19:35:29;;;;;;;6.68;3.35;;;;;;;19.42;55.20;100214.44;10451698;28;20114;-74
2023/06/05 19:40:31;;;;;;;3.83;2.88;;;;;;;19.51;54.32;100213.81;10460284;28;20055;-74
2023/06/05 19:45:33;;;;;;;2.70;2.50;;;;;;;19.39;54.93;100214.66;10459471;28;20060;-74
2023/06/05 19:50:36;;;;;;;3.05;2.45;;;;;;;19.37;54.56;100212.06;10459110;28;20068;-74
2023/06/05 19:55:39;;;;;;;2.65;2.28;;;;;;;19.34;54.73;100211.41;10456999;28;20120;-74
2023/06/05 20:00:41;;;;;;;2.75;2.55;;;;;;;19.23;55.04;100208.59;10458761;28;20091;-73
2023/06/05 20:05:42;;;;;;;5.45;2.85;;;;;;;19.00;58.29;100208.28;10458298;28;20041;-74
2023/06/05 20:10:45;;;;;;;5.40;2.80;;;;;;;18.99;57.71;100203.03;10458655;28;20056;-75
2023/06/05 20:15:47;;;;;;;4.45;2.65;;;;;;;19.10;56.10;100205.88;10457247;28;20056;-74
2023/06/05 20:20:49;;;;;;;2.83;2.58;;;;;;;18.90;56.80;100204.47;10457839;28;20516;-73
2023/06/05 20:25:50;;;;;;;4.43;2.78;;;;;;;18.99;56.67;100200.38;10456736;28;20041;-73
2023/06/05 20:30:52;;;;;;;4.72;2.63;;;;;;;18.94;57.16;100197.16;10455681;28;20045;-72
2023/06/05 20:35:54;;;;;;;3.47;2.55;;;;;;;18.82;57.50;100198.81;10456980;28;20045;-73
2023/06/05 20:40:58;;;;;;;4.20;2.78;;;;;;;18.58;59.60;100202.00;10457556;28;20088;-73
2023/06/05 20:46:01;;;;;;;3.53;2.42;;;;;;;18.49;60.69;100197.25;10457102;28;20037;-72
2023/06/05 20:51:07;;;;;;;;;;;;;;;18.59;59.03;100195.75;10457472;28;20044;-72
2023/06/05 20:56:10;;;;;;;4.55;2.60;;;;;;;18.33;64.70;100197.34;10455476;28;19987;-73
2023/06/05 21:01:12;;;;;;;3.20;3.00;;;;;;;18.26;64.52;100189.84;10455856;28;20182;-72
2023/06/05 21:06:14;;;;;;;3.10;2.75;;;;;;;18.16;65.54;100194.88;10456522;28;20037;-73
2023/06/05 21:11:16;;;;;;;5.00;3.33;;;;;;;18.08;69.10;100207.75;10456364;28;20068;-73
2023/06/05 21:16:18;;;;;;;3.15;2.85;;;;;;;18.04;69.07;100204.44;10438157;28;20049;-73
2023/06/05 21:21:20;;;;;;;4.03;3.30;;;;;;;18.00;68.17;100204.72;10455977;28;20037;-73
2023/06/05 21:26:23;;;;;;;2.78;2.58;;;;;;;17.96;67.99;100201.38;10455429;28;20037;-73
2023/06/05 21:31:25;;;;;;;3.30;3.00;;;;;;;17.82;67.92;100206.66;10455408;28;20188;-73
2023/06/05 21:36:26;;;;;;;2.70;2.50;;;;;;;17.92;67.59;100206.97;10454206;28;20037;-73
2023/06/05 21:41:28;;;;;;;3.03;2.60;;;;;;;17.97;67.11;100211.06;10456182;28;20067;-73
2023/06/05 21:46:30;;;;;;;3.83;2.85;;;;;;;18.00;65.72;100210.03;10456438;28;20661;-73
2023/06/05 21:51:33;;;;;;;3.47;3.17;;;;;;;17.76;70.75;100207.03;10455545;28;20045;-73
2023/06/05 21:56:35;;;;;;;4.13;3.83;;;;;;;17.64;70.04;100213.88;10455512;28;20067;-72
2023/06/05 22:01:37;;;;;;;3.70;2.85;;;;;;;17.82;69.31;100204.00;10457251;28;20041;-73
2023/06/05 22:06:38;;;;;;;3.80;2.90;;;;;;;17.71;72.26;100198.41;10462460;28;20110;-72
2023/06/05 22:11:41;;;;;;;3.58;3.28;;;;;;;17.53;74.69;100201.22;10444870;28;20053;-73
2023/06/05 22:16:44;;;;;;;2.67;2.47;;;;;;;17.58;72.17;100199.16;10462009;28;20051;-72
2023/06/05 22:21:47;;;;;;;2.83;2.63;;;;;;;17.54;72.65;100194.94;10460476;28;20090;-72
2023/06/05 22:26:49;;;;;;;3.80;3.08;;;;;;;17.57;73.92;100193.91;10469345;22;20705;-71
2023/06/05 22:31:51;;;;;;;2.80;2.60;;;;;;;17.49;73.44;100198.81;10381823;28;20038;-71
2023/06/05 22:36:53;;;;;;;3.40;3.10;;;;;;;17.60;73.16;100207.03;10381387;28;20085;-71
2023/06/05 22:41:56;;;;;;;3.03;2.70;;;;;;;17.85;72.00;100202.00;10381532;28;20120;-70
2023/06/05 22:46:58;;;;;;;3.20;2.75;;;;;;;17.94;71.57;100207.75;10380454;28;20125;-70
2023/06/05 22:52:00;;;;;;;5.00;3.58;;;;;;;17.82;72.74;100207.50;10379910;28;20080;-71
2023/06/05 22:57:04;;;;;;;3.60;3.30;;;;;;;17.84;76.80;100210.06;10379776;28;20396;-71
2023/06/05 23:02:06;;;;;;;7.63;2.95;;;;;;;17.88;78.49;100204.50;10380564;28;20053;-70
2023/06/05 23:07:08;;;;;;;4.90;3.45;;;;;;;17.42;84.17;100205.44;10382209;28;20514;-70
2023/06/05 23:12:10;;;;;;;4.40;4.00;;;;;;;17.43;89.04;100215.97;10380976;28;20073;-71